createdAt,value
2022-10-19T00:01:58.418Z,98736.94
2022-10-19T00:04:25.807Z,98737.53
2022-10-19T00:06:54.383Z,98743.47
2022-10-19T00:09:22.688Z,98730.81
2022-10-19T00:11:51.020Z,98718.88
2022-10-19T00:14:20.582Z,98719.50
2022-10-19T00:16:49.093Z,98729.50
2022-10-19T00:19:18.647Z,98708.47
2022-10-19T00:21:46.552Z,98702.53
2022-10-19T00:24:15.551Z,98692.31
2022-10-19T00:26:43.122Z,98696.97
2022-10-19T00:29:11.205Z,98700.03
2022-10-19T00:31:39.057Z,98693.47
2022-10-19T00:34:06.611Z,98692.66
2022-10-19T00:36:36.037Z,98685.50
2022-10-19T00:39:05.854Z,98673.25
2022-10-19T00:41:36.635Z,98684.84
2022-10-19T00:44:06.423Z,98676.25
2022-10-19T00:46:36.278Z,98675.44
2022-10-19T00:49:10.007Z,98671.94
2022-10-19T00:51:42.566Z,98653.66
2022-10-19T00:54:10.663Z,98669.59
2022-10-19T00:56:42.903Z,98665.63
2022-10-19T00:59:12.381Z,98669.63
2022-10-19T01:01:39.826Z,98679.19
2022-10-19T01:04:07.173Z,98674.41
2022-10-19T01:06:35.413Z,98684.16
2022-10-19T01:09:03.115Z,98686.38
2022-10-19T01:11:39.882Z,98669.81
2022-10-19T01:14:25.131Z,98669.94
2022-10-19T01:17:04.501Z,98674.88
2022-10-19T01:20:00.213Z,98670.22
2022-10-19T01:22:36.706Z,98672.75
2022-10-19T01:25:20.308Z,98652.50
2022-10-19T01:28:18.571Z,98670.19
2022-10-19T01:30:53.276Z,98682.34
2022-10-19T01:33:32.793Z,98674.50
2022-10-19T01:36:08.347Z,98652.50
2022-10-19T01:38:42.191Z,98661.22
2022-10-19T01:41:16.379Z,98650.97
2022-10-19T01:43:50.873Z,98637.72
2022-10-19T01:46:23.873Z,98631.19
2022-10-19T01:48:56.519Z,98634.19
2022-10-19T01:51:28.523Z,98621.94
2022-10-19T01:53:59.941Z,98605.56
2022-10-19T01:56:29.495Z,98584.88
2022-10-19T01:59:00.444Z,98587.94
2022-10-19T02:01:33.652Z,98600.06
2022-10-19T02:04:02.548Z,98589.06
2022-10-19T02:06:30.573Z,98587.03
2022-10-19T02:08:57.844Z,98586.91
2022-10-19T02:11:25.427Z,98583.09
2022-10-19T02:13:58.629Z,98586.09
2022-10-19T02:16:32.690Z,98583.28
2022-10-19T02:19:01.726Z,98584.84
2022-10-19T02:21:29.294Z,98586.75
2022-10-19T02:23:56.614Z,98578.16
2022-10-19T02:26:24.002Z,98582.94
2022-10-19T02:28:51.631Z,98572.78
2022-10-19T02:31:18.833Z,98577.88
2022-10-19T02:33:47.719Z,98574.56
2022-10-19T02:36:15.202Z,98572.47
2022-10-19T02:38:42.583Z,98577.88
2022-10-19T02:41:16.163Z,98575.50
2022-10-19T02:43:49.007Z,98563.06
2022-10-19T02:46:21.878Z,98559.88
2022-10-19T02:48:51.962Z,98552.56
2022-10-19T02:51:34.111Z,98556.22
2022-10-19T02:54:05.017Z,98553.31
2022-10-19T02:56:33.681Z,98544.09
2022-10-19T02:59:01.056Z,98539.00
2022-10-19T03:01:28.290Z,98540.56
2022-10-19T03:03:57.044Z,98537.06
2022-10-19T03:06:24.443Z,98537.22
2022-10-19T03:08:52.073Z,98535.44
2022-10-19T03:11:19.707Z,98535.28
2022-10-19T03:16:15.265Z,98537.38
2022-10-19T03:18:42.561Z,98528.13
2022-10-19T03:21:13.436Z,98502.63
2022-10-19T03:23:41.274Z,98522.72
2022-10-19T03:26:12.494Z,98517.63
2022-10-19T03:28:39.955Z,98512.03
2022-10-19T03:31:07.267Z,98499.97
2022-10-19T03:33:34.760Z,98501.56
2022-10-19T03:36:21.912Z,98509.06
2022-10-19T03:38:50.940Z,98502.97
2022-10-19T03:41:18.523Z,98494.72
2022-10-19T03:43:45.815Z,98493.81
2022-10-19T03:46:13.275Z,98492.34
2022-10-19T03:48:40.723Z,98490.75
2022-10-19T03:51:09.867Z,98491.91
2022-10-19T03:53:40.618Z,98487.25
2022-10-19T03:56:11.791Z,98481.22
2022-10-19T03:58:40.407Z,98474.38
2022-10-19T04:01:10.823Z,98475.47
2022-10-19T04:03:38.748Z,98474.38
2022-10-19T04:06:07.977Z,98471.66
2022-10-19T04:08:35.485Z,98485.66
2022-10-19T04:11:05.720Z,98474.34
2022-10-19T04:13:33.735Z,98475.78
2022-10-19T04:16:01.820Z,98456.50
2022-10-19T04:18:29.201Z,98461.59
2022-10-19T04:20:57.851Z,98450.78
2022-10-19T04:23:27.689Z,98453.63
2022-10-19T04:26:00.137Z,98455.88
2022-10-19T04:28:28.608Z,98442.19
2022-10-19T04:30:56.643Z,98434.88
2022-10-19T04:33:24.279Z,98440.09
2022-10-19T04:35:51.631Z,98441.88
2022-10-19T04:38:18.811Z,98439.94
2022-10-19T04:40:45.988Z,98445.03
2022-10-19T04:43:13.512Z,98443.28
2022-10-19T04:45:42.212Z,98449.81
2022-10-19T04:48:09.526Z,98444.41
2022-10-19T04:50:36.754Z,98441.69
2022-10-19T04:53:05.416Z,98446.59
2022-10-19T04:55:32.643Z,98440.09
2022-10-19T04:57:59.920Z,98431.00
2022-10-19T05:00:27.286Z,98423.84
2022-10-19T05:02:56.026Z,98424.81
2022-10-19T05:05:24.496Z,98431.38
2022-10-19T05:07:51.773Z,98423.44
2022-10-19T05:10:18.957Z,98428.84
2022-10-19T05:12:46.216Z,98425.03
2022-10-19T05:15:13.466Z,98419.94
2022-10-19T05:17:40.956Z,98425.38
2022-10-19T05:20:13.345Z,98426.03
2022-10-19T05:22:40.710Z,98427.13
2022-10-19T05:25:08.786Z,98422.22
2022-10-19T05:27:36.447Z,98428.75
2022-10-19T05:30:04.405Z,98419.03
2022-10-19T05:32:31.797Z,98413.34
2022-10-19T05:34:59.056Z,98415.56
2022-10-19T05:37:27.894Z,98417.78
2022-10-19T05:39:55.744Z,98423.84
2022-10-19T05:42:23.030Z,98421.00
2022-10-19T05:44:50.432Z,98421.00
2022-10-19T05:47:17.768Z,98421.00
2022-10-19T05:49:45.084Z,98420.50
2022-10-19T05:52:13.186Z,98418.59
2022-10-19T05:54:41.945Z,98404.94
2022-10-19T05:57:09.217Z,98407.31
2022-10-19T05:59:36.423Z,98399.03
2022-10-19T06:02:03.921Z,98406.81
2022-10-19T06:04:33.015Z,98404.44
2022-10-19T06:07:01.633Z,98405.25
2022-10-19T06:09:29.020Z,98406.69
2022-10-19T06:11:57.748Z,98404.78
2022-10-19T06:14:25.044Z,98393.16
2022-10-19T06:16:52.263Z,98398.91
2022-10-19T06:19:19.493Z,98402.84
2022-10-19T06:21:46.839Z,98392.69
2022-10-19T06:24:14.345Z,98395.06
2022-10-19T06:26:41.830Z,98386.50
2022-10-19T06:29:11.163Z,98394.13
2022-10-19T06:31:38.726Z,98392.03
2022-10-19T06:34:06.459Z,98399.84
2022-10-19T06:36:34.599Z,98393.97
2022-10-19T06:39:02.223Z,98398.56
2022-10-19T06:41:31.289Z,98407.31
2022-10-19T06:44:13.992Z,98399.03
2022-10-19T06:46:41.407Z,98399.81
2022-10-19T06:49:12.701Z,98404.09
2022-10-19T06:51:40.826Z,98398.56
2022-10-19T06:54:08.223Z,98398.88
2022-10-19T06:56:35.533Z,98394.09
2022-10-19T06:59:02.819Z,98398.22
2022-10-19T07:01:31.783Z,98388.06
2022-10-19T07:03:59.103Z,98392.66
2022-10-19T07:06:28.012Z,98375.66
2022-10-19T07:08:55.346Z,98384.25
2022-10-19T07:11:23.369Z,98384.22
2022-10-19T07:13:52.431Z,98381.41
2022-10-19T07:16:21.742Z,98379.00
2022-10-19T07:18:52.409Z,98366.44
2022-10-19T07:21:21.424Z,98362.94
2022-10-19T07:23:49.402Z,98366.28
2022-10-19T07:26:18.620Z,98364.69
2022-10-19T07:28:48.201Z,98359.44
2022-10-19T07:31:20.742Z,98358.00
2022-10-19T07:33:51.760Z,98366.88
2022-10-19T07:36:20.376Z,98365.28
2022-10-19T07:38:47.894Z,98355.91
2022-10-19T07:41:17.592Z,98359.84
2022-10-19T07:43:46.865Z,98363.69
2022-10-19T07:46:16.350Z,98361.44
2022-10-19T07:48:44.417Z,98365.09
2022-10-19T07:51:13.342Z,98365.91
2022-10-19T07:53:42.312Z,98362.56
2022-10-19T07:56:11.889Z,98357.00
2022-10-19T07:58:40.621Z,98369.09
2022-10-19T08:01:10.270Z,98367.81
2022-10-19T08:06:26.444Z,98367.50
2022-10-19T08:08:56.068Z,98362.41
2022-10-19T08:11:25.951Z,98375.75
2022-10-19T08:13:54.273Z,98373.19
2022-10-19T08:16:24.732Z,98373.38
2022-10-19T08:18:53.512Z,98377.19
2022-10-19T08:21:20.860Z,98372.09
2022-10-19T08:23:48.104Z,98361.75
2022-10-19T08:26:16.699Z,98365.25
2022-10-19T08:28:43.921Z,98364.47
2022-10-19T08:31:13.611Z,98351.28
2022-10-19T08:33:41.414Z,98367.63
2022-10-19T08:36:10.606Z,98356.31
2022-10-19T08:38:38.678Z,98357.91
2022-10-19T08:41:18.681Z,98355.69
2022-10-19T08:43:59.807Z,98354.72
2022-10-19T08:46:35.875Z,98354.44
2022-10-19T08:49:04.505Z,98347.41
2022-10-19T08:51:38.515Z,98352.19
2022-10-19T08:54:14.352Z,98357.09
2022-10-19T08:56:52.013Z,98352.00
2022-10-19T08:59:36.577Z,98344.66
2022-10-19T09:02:14.377Z,98348.16
2022-10-19T09:04:46.243Z,98342.31
2022-10-19T09:07:26.979Z,98340.72
2022-10-19T09:09:58.161Z,98344.53
2022-10-19T09:12:36.121Z,98355.03
2022-10-19T09:15:10.806Z,98357.59
2022-10-19T09:17:38.424Z,98361.75
2022-10-19T09:20:17.645Z,98360.16
2022-10-19T09:22:45.111Z,98374.50
2022-10-19T09:25:17.776Z,98369.72
2022-10-19T09:27:48.231Z,98367.63
2022-10-19T09:30:20.274Z,98375.41
2022-10-19T09:32:49.160Z,98369.22
2022-10-19T09:35:25.028Z,98369.81
2022-10-19T09:37:52.857Z,98363.94
2022-10-19T09:40:23.533Z,98366.03
2022-10-19T09:42:58.296Z,98357.91
2022-10-19T09:45:35.199Z,98355.03
2022-10-19T09:48:12.822Z,98370.28
2022-10-19T09:50:43.940Z,98375.69
2022-10-19T09:53:19.150Z,98373.94
2022-10-19T09:55:58.029Z,98364.53
2022-10-19T09:58:30.466Z,98361.84
2022-10-19T10:01:03.147Z,98364.69
2022-10-19T10:03:32.463Z,98362.78
2022-10-19T10:06:04.106Z,98369.13
2022-10-19T10:08:34.679Z,98366.09
2022-10-19T10:11:08.633Z,98355.59
2022-10-19T10:13:38.741Z,98364.66
2022-10-19T10:16:11.304Z,98360.34
2022-10-19T10:18:51.187Z,98354.28
2022-10-19T10:21:25.485Z,98363.69
2022-10-19T10:24:02.671Z,98366.25
2022-10-19T10:26:30.038Z,98373.88
2022-10-19T10:29:00.663Z,98369.13
2022-10-19T10:31:31.067Z,98367.88
2022-10-19T10:34:10.975Z,98364.19
2022-10-19T10:36:51.325Z,98365.59
2022-10-19T10:39:18.662Z,98366.88
2022-10-19T10:41:49.186Z,98365.75
2022-10-19T10:44:22.006Z,98372.13
2022-10-19T10:46:56.476Z,98367.19
2022-10-19T10:49:27.128Z,98375.03
2022-10-19T10:51:57.244Z,98371.19
2022-10-19T10:54:26.438Z,98377.56
2022-10-19T10:57:16.703Z,98373.63
2022-10-19T10:59:56.447Z,98381.06
2022-10-19T11:02:34.942Z,98372.97
2022-10-19T11:05:07.873Z,98369.97
2022-10-19T11:07:36.894Z,98367.91
2022-10-19T11:10:12.530Z,98369.22
2022-10-19T11:12:45.401Z,98369.38
2022-10-19T11:15:18.971Z,98374.75
2022-10-19T11:17:57.402Z,98377.63
2022-10-19T11:20:29.758Z,98373.47
2022-10-19T11:23:07.531Z,98365.53
2022-10-19T11:25:46.324Z,98372.72
2022-10-19T11:28:26.261Z,98372.56
2022-10-19T11:31:03.233Z,98376.53
2022-10-19T11:33:47.606Z,98367.16
2022-10-19T11:36:27.671Z,98365.72
2022-10-19T11:39:06.264Z,98361.09
2022-10-19T11:41:39.482Z,98347.84
2022-10-19T11:44:27.042Z,98350.88
2022-10-19T11:47:09.213Z,98354.69
2022-10-19T11:49:51.035Z,98341.50
2022-10-19T11:52:27.573Z,98350.22
2022-10-19T11:55:11.474Z,98350.22
2022-10-19T11:57:48.872Z,98343.41
2022-10-19T12:00:37.508Z,98341.84
2022-10-19T12:03:45.023Z,98346.78
2022-10-19T12:06:22.591Z,98344.72
2022-10-19T12:09:05.025Z,98347.44
2022-10-19T12:11:49.468Z,98342.34
2022-10-19T12:14:21.044Z,98365.72
2022-10-19T12:16:52.156Z,98357.59
2022-10-19T12:19:23.113Z,98360.09
2022-10-19T12:21:55.387Z,98365.84
2022-10-19T12:24:25.657Z,98362.97
2022-10-19T12:26:55.392Z,98369.81
2022-10-19T12:29:26.020Z,98363.47
2022-10-19T12:31:55.707Z,98363.78
2022-10-19T12:34:31.597Z,98372.22
2022-10-19T12:37:07.137Z,98367.75
2022-10-19T12:39:42.985Z,98376.66
2022-10-19T12:42:22.880Z,98374.13
2022-10-19T12:45:18.441Z,98380.78
2022-10-19T12:48:23.038Z,98376.28
2022-10-19T12:51:12.288Z,98376.94
2022-10-19T12:53:44.497Z,98375.03
2022-10-19T12:56:20.357Z,98382.97
2022-10-19T12:58:53.225Z,98384.28
2022-10-19T13:01:24.521Z,98379.50
2022-10-19T13:04:06.568Z,98390.00
2022-10-19T13:06:36.962Z,98391.94
2022-10-19T13:09:08.207Z,98384.59
2022-10-19T13:11:36.519Z,98386.19
2022-10-19T13:14:06.563Z,98394.00
2022-10-19T13:17:07.643Z,98393.22
2022-10-19T13:19:35.251Z,98388.41
2022-10-19T13:22:29.054Z,98398.44
2022-10-19T13:25:28.053Z,98386.84
2022-10-19T13:28:00.336Z,98389.72
2022-10-19T13:31:06.263Z,98398.16
2022-10-19T13:33:48.554Z,98390.66
2022-10-19T13:36:17.413Z,98403.88
2022-10-19T13:38:46.786Z,98402.13
2022-10-19T13:41:19.126Z,98404.84
2022-10-19T13:44:06.942Z,98409.13
2022-10-19T13:47:02.482Z,98414.56
2022-10-19T13:49:53.605Z,98413.94
2022-10-19T13:52:45.356Z,98411.53
2022-10-19T13:55:57.085Z,98405.34
2022-10-19T13:59:06.747Z,98404.06
2022-10-19T14:01:48.600Z,98397.88
2022-10-19T14:04:28.235Z,98402.31
2022-10-19T14:07:01.313Z,98403.44
2022-10-19T14:09:48.377Z,98395.16
2022-10-19T14:12:23.447Z,98401.06
2022-10-19T14:14:53.825Z,98414.59
2022-10-19T14:17:24.747Z,98411.09
2022-10-19T14:19:55.470Z,98412.03
2022-10-19T14:22:30.031Z,98418.09
2022-10-19T14:25:02.381Z,98418.72
2022-10-19T14:27:31.697Z,98414.75
2022-10-19T14:30:01.075Z,98420.16
2022-10-19T14:32:30.202Z,98419.69
2022-10-19T14:37:36.938Z,98427.97
2022-10-19T14:40:07.756Z,98434.63
2022-10-19T14:42:40.681Z,98435.44
2022-10-19T14:45:15.908Z,98441.00
2022-10-19T14:47:58.652Z,98437.50
2022-10-19T14:50:43.056Z,98432.88
2022-10-19T14:53:27.516Z,98434.97
2022-10-19T14:55:58.477Z,98433.69
2022-10-19T14:58:27.360Z,98429.56
2022-10-19T15:00:56.479Z,98445.16
2022-10-19T15:03:27.263Z,98447.38
2022-10-19T15:05:59.107Z,98441.66
2022-10-19T15:08:37.487Z,98447.38
2022-10-19T15:11:06.625Z,98458.19
2022-10-19T15:13:40.508Z,98457.88
2022-10-19T15:16:34.676Z,98452.31
2022-10-19T15:19:06.041Z,98461.88
2022-10-19T15:21:33.756Z,98461.41
2022-10-19T15:24:09.265Z,98470.63
2022-10-19T15:26:36.599Z,98460.44
2022-10-19T15:29:18.653Z,98465.22
2022-10-19T15:31:47.287Z,98462.34
2022-10-19T15:34:24.601Z,98467.59
2022-10-19T15:36:57.019Z,98451.50
2022-10-19T15:39:42.126Z,98456.59
2022-10-19T15:42:35.533Z,98468.69
2022-10-19T15:45:03.384Z,98472.53
2022-10-19T15:47:32.359Z,98471.09
2022-10-19T15:50:01.739Z,98478.09
2022-10-19T15:52:33.721Z,98481.13
2022-10-19T15:55:02.197Z,98485.25
2022-10-19T15:57:33.181Z,98484.13
2022-10-19T16:00:03.619Z,98484.94
2022-10-19T16:02:32.942Z,98486.53
2022-10-19T16:05:00.211Z,98488.59
2022-10-19T16:07:29.718Z,98485.88
2022-10-19T16:09:57.493Z,98487.31
2022-10-19T16:12:26.489Z,98490.66
2022-10-19T16:14:53.946Z,98497.97
2022-10-19T16:17:21.638Z,98496.72
2022-10-19T16:19:50.553Z,98492.56
2022-10-19T16:22:18.133Z,98489.22
2022-10-19T16:24:45.444Z,98497.66
2022-10-19T16:27:16.524Z,98493.72
2022-10-19T16:29:45.715Z,98494.50
2022-10-19T16:32:13.361Z,98500.22
2022-10-19T16:34:41.585Z,98493.22
2022-10-19T16:37:10.239Z,98497.06
2022-10-19T16:39:37.797Z,98505.63
2022-10-19T16:42:05.234Z,98509.13
2022-10-19T16:44:32.691Z,98512.63
2022-10-19T16:47:00.105Z,98513.91
2022-10-19T16:49:27.541Z,98508.34
2022-10-19T16:51:57.403Z,98520.28
2022-10-19T16:54:27.236Z,98506.91
2022-10-19T16:56:55.787Z,98508.81
2022-10-19T16:59:23.232Z,98520.59
2022-10-19T17:01:50.954Z,98525.69
2022-10-19T17:04:18.512Z,98526.81
2022-10-19T17:06:45.747Z,98514.22
2022-10-19T17:12:01.850Z,98512.47
2022-10-19T17:14:29.191Z,98518.50
2022-10-19T17:16:56.547Z,98518.38
2022-10-19T17:19:23.871Z,98515.97
2022-10-19T17:21:51.357Z,98522.19
2022-10-19T17:24:22.024Z,98513.56
2022-10-19T17:26:50.455Z,98533.00
2022-10-19T17:29:19.487Z,98533.94
2022-10-19T17:31:47.524Z,98533.94
2022-10-19T17:34:15.274Z,98530.31
2022-10-19T17:36:44.890Z,98537.94
2022-10-19T17:39:15.213Z,98534.59
2022-10-19T17:41:42.512Z,98540.78
2022-10-19T17:44:09.821Z,98549.84
2022-10-19T17:46:38.475Z,98544.13
2022-10-19T17:49:05.813Z,98550.78
2022-10-19T17:51:35.386Z,98542.19
2022-10-19T17:54:05.064Z,98539.03
2022-10-19T17:56:32.302Z,98556.38
2022-10-19T17:59:00.518Z,98553.19
2022-10-19T18:01:27.844Z,98553.66
2022-10-19T18:03:57.052Z,98561.63
2022-10-19T18:06:26.201Z,98563.88
2022-10-19T18:08:55.937Z,98559.41
2022-10-19T18:11:25.077Z,98563.22
2022-10-19T18:13:54.908Z,98568.31
2022-10-19T18:16:23.856Z,98558.31
2022-10-19T18:18:54.991Z,98563.69
2022-10-19T18:21:26.004Z,98563.69
2022-10-19T18:23:53.921Z,98570.38
2022-10-19T18:26:23.703Z,98571.19
2022-10-19T18:28:52.648Z,98580.09
2022-10-19T18:31:21.474Z,98562.72
2022-10-19T18:33:50.026Z,98575.63
2022-10-19T18:36:17.454Z,98572.78
2022-10-19T18:38:50.454Z,98580.09
2022-10-19T18:41:18.382Z,98580.09
2022-10-19T18:43:51.437Z,98572.44
2022-10-19T18:46:19.993Z,98572.44
2022-10-19T18:48:48.129Z,98583.72
2022-10-19T18:51:16.019Z,98570.47
2022-10-19T18:53:44.327Z,98587.06
2022-10-19T18:56:15.393Z,98581.16
2022-10-19T18:58:42.948Z,98583.72
2022-10-19T19:01:11.965Z,98581.31
2022-10-19T19:03:41.209Z,98567.59
2022-10-19T19:06:11.023Z,98576.84
2022-10-19T19:08:38.809Z,98577.78
2022-10-19T19:11:11.420Z,98572.22
2022-10-19T19:13:41.391Z,98575.88
2022-10-19T19:16:09.792Z,98571.59
2022-10-19T19:18:37.041Z,98588.28
2022-10-19T19:21:06.368Z,98580.00
2022-10-19T19:23:33.863Z,98580.31
2022-10-19T19:26:03.363Z,98585.41
2022-10-19T19:28:30.621Z,98581.94
2022-10-19T19:31:00.127Z,98581.31
2022-10-19T19:33:27.340Z,98590.34
2022-10-19T19:35:54.734Z,98589.72
2022-10-19T19:38:22.192Z,98599.75
2022-10-19T19:40:49.477Z,98599.13
2022-10-19T19:43:17.045Z,98600.84
2022-10-19T19:45:44.568Z,98610.22
2022-10-19T19:48:13.173Z,98601.66
2022-10-19T19:50:46.598Z,98604.19
2022-10-19T19:53:13.945Z,98616.94
2022-10-19T19:55:41.196Z,98611.84
2022-10-19T19:58:08.776Z,98613.91
2022-10-19T20:00:38.674Z,98620.44
2022-10-19T20:03:05.936Z,98630.47
2022-10-19T20:05:34.621Z,98631.28
2022-10-19T20:08:01.856Z,98634.75
2022-10-19T20:10:29.304Z,98641.44
2022-10-19T20:12:56.596Z,98642.72
2022-10-19T20:15:24.043Z,98637.31
2022-10-19T20:17:51.216Z,98643.03
2022-10-19T20:20:18.734Z,98642.72
2022-10-19T20:22:48.176Z,98652.75
2022-10-19T20:25:15.690Z,98656.25
2022-10-19T20:27:43.082Z,98654.78
2022-10-19T20:30:11.527Z,98654.97
2022-10-19T20:32:38.945Z,98659.41
2022-10-19T20:35:07.654Z,98659.56
2022-10-19T20:37:35.118Z,98660.53
2022-10-19T20:40:08.619Z,98666.69
2022-10-19T20:42:36.667Z,98661.75
2022-10-19T20:45:04.940Z,98663.34
2022-10-19T20:47:32.140Z,98657.63
2022-10-19T20:49:59.463Z,98662.06
2022-10-19T20:52:26.781Z,98667.81
2022-10-19T20:54:54.063Z,98657.94
2022-10-19T20:57:22.656Z,98661.41
2022-10-19T20:59:49.980Z,98655.34
2022-10-19T21:02:17.262Z,98660.13
2022-10-19T21:04:44.444Z,98664.59
2022-10-19T21:07:11.813Z,98667.13
2022-10-19T21:09:39.091Z,98670.63
2022-10-19T21:12:06.336Z,98662.03
2022-10-19T21:14:35.037Z,98669.50
2022-10-19T21:17:02.221Z,98666.97
2022-10-19T21:19:30.183Z,98661.25
2022-10-19T21:22:02.032Z,98674.09
2022-10-19T21:24:32.638Z,98684.28
2022-10-19T21:27:01.616Z,98681.59
2022-10-19T21:29:28.922Z,98680.66
2022-10-19T21:31:57.635Z,98683.19
2022-10-19T21:34:27.063Z,98682.41
2022-10-19T21:36:54.312Z,98682.41
2022-10-19T21:39:22.265Z,98686.38
2022-10-19T21:41:50.333Z,98694.94
2022-10-19T21:44:18.786Z,98693.66
2022-10-19T21:46:48.133Z,98683.94
2022-10-19T21:49:17.097Z,98688.41
2022-10-19T21:51:46.401Z,98694.25
2022-10-19T21:54:16.116Z,98679.44
2022-10-19T21:56:44.051Z,98691.88
2022-10-19T21:59:12.517Z,98690.28
2022-10-19T22:01:41.330Z,98703.13
2022-10-19T22:04:12.193Z,98703.00
2022-10-19T22:06:42.013Z,98699.66
2022-10-19T22:09:13.312Z,98707.16
2022-10-19T22:11:40.619Z,98692.81
2022-10-19T22:14:07.998Z,98697.91
2022-10-19T22:16:37.082Z,98708.09
2022-10-19T22:19:05.295Z,98715.72
2022-10-19T22:21:33.755Z,98719.19
2022-10-19T22:24:04.702Z,98729.38
2022-10-19T22:26:33.799Z,98730.31
2022-10-19T22:29:02.139Z,98723.34
2022-10-19T22:31:31.423Z,98721.59
2022-10-19T22:34:00.124Z,98730.97
2022-10-19T22:36:27.441Z,98735.25
2022-10-19T22:38:55.238Z,98731.28
2022-10-19T22:41:23.946Z,98730.63
2022-10-19T22:43:51.143Z,98736.66
2022-10-19T22:46:18.430Z,98734.78
2022-10-19T22:48:45.854Z,98746.56
2022-10-19T22:51:13.186Z,98734.78
2022-10-19T22:53:40.531Z,98733.97
2022-10-19T22:56:10.756Z,98737.59
2022-10-19T22:58:39.853Z,98743.13
2022-10-19T23:01:09.551Z,98737.88
2022-10-19T23:03:39.434Z,98742.78
2022-10-19T23:06:07.256Z,98750.41
2022-10-19T23:08:34.520Z,98753.13
2022-10-19T23:11:01.850Z,98750.41
2022-10-19T23:13:29.255Z,98755.00
2022-10-19T23:15:58.043Z,98754.34
2022-10-19T23:18:25.333Z,98753.69
2022-10-19T23:20:56.613Z,98754.66
2022-10-19T23:23:24.369Z,98758.78
2022-10-19T23:26:03.011Z,98765.47
2022-10-19T23:28:31.441Z,98761.69
2022-10-19T23:31:04.785Z,98762.31
2022-10-19T23:33:32.384Z,98766.47
2022-10-19T23:36:03.254Z,98772.22
2022-10-19T23:38:30.622Z,98779.53
2022-10-19T23:40:58.250Z,98767.84
2022-10-19T23:43:25.631Z,98780.25
2022-10-19T23:45:53.061Z,98782.78
2022-10-19T23:48:22.081Z,98785.34
2022-10-19T23:50:57.454Z,98791.38
2022-10-19T23:53:25.235Z,98781.19
2022-10-19T23:55:57.691Z,98794.13
2022-10-19T23:58:25.065Z,98788.50
